createdAt,value
2023-03-16T00:00:19.569Z,101620.53
2023-03-16T00:02:46.695Z,101618.88
2023-03-16T00:05:14.350Z,101624.84
2023-03-16T00:07:44.381Z,101625.84
2023-03-16T00:10:13.053Z,101626.16
2023-03-16T00:12:43.355Z,101629.13
2023-03-16T00:15:12.313Z,101628.63
2023-03-16T00:17:39.409Z,101636.91
2023-03-16T00:20:07.154Z,101640.84
2023-03-16T00:22:34.688Z,101637.56
2023-03-16T00:25:02.020Z,101638.56
2023-03-16T00:27:29.150Z,101633.59
2023-03-16T00:29:56.717Z,101637.38
2023-03-16T00:32:27.603Z,101627.31
2023-03-16T00:34:55.120Z,101636.06
2023-03-16T00:37:23.958Z,101630.63
2023-03-16T00:39:52.759Z,101625.50
2023-03-16T00:42:20.691Z,101633.75
2023-03-16T00:44:47.781Z,101636.53
2023-03-16T00:47:15.281Z,101646.59
2023-03-16T00:49:44.476Z,101648.41
2023-03-16T00:52:16.224Z,101653.69
2023-03-16T00:54:45.511Z,101644.44
2023-03-16T00:57:17.442Z,101647.22
2023-03-16T00:59:46.255Z,101654.31
2023-03-16T01:02:15.474Z,101649.38
2023-03-16T01:04:43.770Z,101653.66
2023-03-16T01:07:14.150Z,101671.47
2023-03-16T01:09:42.710Z,101662.22
2023-03-16T01:12:17.376Z,101668.19
2023-03-16T01:14:45.876Z,101672.78
2023-03-16T01:17:15.066Z,101664.53
2023-03-16T01:19:43.693Z,101667.16
2023-03-16T01:22:12.182Z,101664.69
2023-03-16T01:24:41.029Z,101657.75
2023-03-16T01:27:09.151Z,101659.06
2023-03-16T01:29:37.655Z,101663.38
2023-03-16T01:32:05.738Z,101651.63
2023-03-16T01:34:33.872Z,101657.91
2023-03-16T01:37:01.231Z,101655.25
2023-03-16T01:39:39.950Z,101667.78
2023-03-16T01:42:07.562Z,101656.72
2023-03-16T01:44:57.110Z,101659.53
2023-03-16T01:47:29.103Z,101662.81
2023-03-16T01:49:57.561Z,101667.41
2023-03-16T01:52:35.741Z,101658.69
2023-03-16T01:55:13.205Z,101670.38
2023-03-16T01:57:44.397Z,101668.72
2023-03-16T02:00:20.527Z,101662.94
2023-03-16T02:03:19.065Z,101662.59
2023-03-16T02:05:58.509Z,101654.50
2023-03-16T02:08:27.768Z,101659.13
2023-03-16T02:10:56.686Z,101651.69
2023-03-16T02:13:33.911Z,101651.84
2023-03-16T02:16:01.773Z,101638.97
2023-03-16T02:18:29.086Z,101642.59
2023-03-16T02:21:22.576Z,101639.13
2023-03-16T02:23:51.524Z,101650.16
2023-03-16T02:26:28.968Z,101644.88
2023-03-16T02:29:29.563Z,101647.53
2023-03-16T02:32:00.120Z,101649.66
2023-03-16T02:34:28.053Z,101650.78
2023-03-16T02:36:57.071Z,101656.19
2023-03-16T02:39:25.811Z,101659.81
2023-03-16T02:41:52.996Z,101650.25
2023-03-16T02:44:27.429Z,101654.69
2023-03-16T02:47:01.730Z,101653.03
2023-03-16T02:49:40.772Z,101651.53
2023-03-16T02:52:08.751Z,101657.81
2023-03-16T02:54:36.016Z,101652.69
2023-03-16T02:57:03.771Z,101657.28
2023-03-16T02:59:31.661Z,101651.19
2023-03-16T03:01:58.798Z,101658.28
2023-03-16T03:04:25.711Z,101660.09
2023-03-16T03:06:52.651Z,101658.75
2023-03-16T03:09:20.788Z,101660.41
2023-03-16T03:11:52.175Z,101671.25
2023-03-16T03:14:19.211Z,101673.06
2023-03-16T03:16:48.941Z,101680.31
2023-03-16T03:19:16.119Z,101682.94
2023-03-16T03:21:43.076Z,101682.28
2023-03-16T03:24:10.552Z,101677.63
2023-03-16T03:26:40.434Z,101671.22
2023-03-16T03:29:13.044Z,101674.16
2023-03-16T03:31:40.378Z,101678.44
2023-03-16T03:34:07.655Z,101675.28
2023-03-16T03:36:35.824Z,101689.16
2023-03-16T03:39:05.154Z,101690.97
2023-03-16T03:41:34.203Z,101677.41
2023-03-16T03:44:05.237Z,101680.38
2023-03-16T03:46:34.366Z,101674.41
2023-03-16T03:49:03.899Z,101687.28
2023-03-16T03:51:34.906Z,101690.91
2023-03-16T03:54:12.413Z,101683.47
2023-03-16T03:56:57.822Z,101683.63
2023-03-16T03:59:25.125Z,101691.38
2023-03-16T04:02:16.115Z,101681.97
2023-03-16T04:04:49.514Z,101687.22
2023-03-16T04:07:16.760Z,101688.06
2023-03-16T04:09:45.074Z,101681.97
2023-03-16T04:12:22.408Z,101687.06
2023-03-16T04:14:49.579Z,101689.72
2023-03-16T04:17:17.703Z,101682.13
2023-03-16T04:19:45.702Z,101685.72
2023-03-16T04:22:15.688Z,101682.13
2023-03-16T04:24:44.508Z,101674.38
2023-03-16T04:27:13.090Z,101689.19
2023-03-16T04:29:40.527Z,101694.16
2023-03-16T04:32:08.075Z,101683.78
2023-03-16T04:34:35.925Z,101681.28
2023-03-16T04:37:05.471Z,101686.56
2023-03-16T04:39:35.042Z,101692.66
2023-03-16T04:42:02.005Z,101690.03
2023-03-16T04:44:29.127Z,101692.81
2023-03-16T04:46:56.748Z,101692.81
2023-03-16T04:49:26.668Z,101691.31
2023-03-16T04:51:53.707Z,101700.19
2023-03-16T04:54:22.083Z,101701.84
2023-03-16T04:56:49.192Z,101698.84
2023-03-16T04:59:30.307Z,101698.69
2023-03-16T05:02:04.004Z,101703.13
2023-03-16T05:04:31.832Z,101701.63
2023-03-16T05:06:58.943Z,101714.81
2023-03-16T05:09:30.274Z,101712.47
2023-03-16T05:11:57.399Z,101710.97
2023-03-16T05:14:24.360Z,101704.06
2023-03-16T05:17:14.819Z,101710.31
2023-03-16T05:19:43.305Z,101714.75
2023-03-16T05:22:11.054Z,101716.56
2023-03-16T05:24:41.255Z,101712.25
2023-03-16T05:27:08.390Z,101713.91
2023-03-16T05:29:35.582Z,101713.41
2023-03-16T05:32:02.583Z,101712.13
2023-03-16T05:34:31.642Z,101717.38
2023-03-16T05:36:58.972Z,101725.13
2023-03-16T05:39:25.930Z,101718.50
2023-03-16T05:41:54.994Z,101716.56
2023-03-16T05:44:22.619Z,101715.72
2023-03-16T05:47:19.975Z,101726.94
2023-03-16T05:49:52.431Z,101723.47
2023-03-16T05:52:25.411Z,101738.53
2023-03-16T05:54:54.097Z,101732.56
2023-03-16T05:57:21.188Z,101733.94
2023-03-16T05:59:53.306Z,101744.69
2023-03-16T06:02:21.711Z,101744.53
2023-03-16T06:04:48.906Z,101744.38
2023-03-16T06:07:15.918Z,101749.19
2023-03-16T06:09:43.291Z,101745.41
2023-03-16T06:12:14.507Z,101748.59
2023-03-16T06:14:42.353Z,101749.94
2023-03-16T06:17:10.264Z,101755.41
2023-03-16T06:19:39.443Z,101741.78
2023-03-16T06:22:08.530Z,101749.22
2023-03-16T06:24:35.822Z,101752.22
2023-03-16T06:27:03.015Z,101754.38
2023-03-16T06:29:36.182Z,101751.00
2023-03-16T06:32:04.087Z,101756.66
2023-03-16T06:34:31.260Z,101765.44
2023-03-16T06:36:58.362Z,101761.84
2023-03-16T06:39:25.791Z,101769.00
2023-03-16T06:41:53.413Z,101770.03
2023-03-16T06:44:21.354Z,101781.78
2023-03-16T06:47:01.603Z,101777.06
2023-03-16T06:49:28.793Z,101779.41
2023-03-16T06:51:58.596Z,101778.28
2023-03-16T06:54:26.881Z,101774.56
2023-03-16T06:56:54.033Z,101794.09
2023-03-16T06:59:22.129Z,101791.97
2023-03-16T07:01:50.334Z,101792.84
2023-03-16T07:04:17.779Z,101796.66
2023-03-16T07:06:45.048Z,101790.53
2023-03-16T07:09:12.942Z,101790.91
2023-03-16T07:11:40.746Z,101797.50
2023-03-16T07:14:07.804Z,101788.56
2023-03-16T07:16:35.525Z,101802.75
2023-03-16T07:19:04.569Z,101800.72
2023-03-16T07:21:39.041Z,101811.72
2023-03-16T07:24:10.626Z,101808.25
2023-03-16T07:26:38.832Z,101810.66
2023-03-16T07:29:06.455Z,101802.34
2023-03-16T07:31:34.805Z,101815.53
2023-03-16T07:34:06.557Z,101816.56
2023-03-16T07:36:41.796Z,101815.41
2023-03-16T07:39:09.109Z,101811.00
2023-03-16T07:41:36.441Z,101826.19
2023-03-16T07:44:31.194Z,101824.63
2023-03-16T07:46:58.395Z,101813.50
2023-03-16T07:49:28.253Z,101810.72
2023-03-16T07:51:56.740Z,101818.41
2023-03-16T07:54:30.147Z,101817.19
2023-03-16T07:56:57.213Z,101806.91
2023-03-16T07:59:33.973Z,101816.63
2023-03-16T08:02:02.140Z,101815.59
2023-03-16T08:04:29.293Z,101826.06
2023-03-16T08:07:00.277Z,101813.59
2023-03-16T08:09:35.920Z,101813.22
2023-03-16T08:12:07.123Z,101818.56
2023-03-16T08:14:36.720Z,101827.47
2023-03-16T08:17:12.298Z,101816.56
2023-03-16T08:19:40.413Z,101821.25
2023-03-16T08:22:09.684Z,101803.19
2023-03-16T08:24:42.616Z,101809.38
2023-03-16T08:27:12.028Z,101803.63
2023-03-16T08:29:41.870Z,101803.00
2023-03-16T08:32:13.425Z,101803.03
2023-03-16T08:34:43.750Z,101804.06
2023-03-16T08:37:11.638Z,101806.53
2023-03-16T08:39:42.017Z,101812.28
2023-03-16T08:42:11.844Z,101815.50
2023-03-16T08:44:44.096Z,101811.03
2023-03-16T08:47:12.020Z,101819.78
2023-03-16T08:49:41.401Z,101818.47
2023-03-16T08:52:12.886Z,101820.56
2023-03-16T08:54:47.122Z,101819.81
2023-03-16T08:57:19.862Z,101832.69
2023-03-16T08:59:46.810Z,101823.00
2023-03-16T09:02:14.819Z,101825.41
2023-03-16T09:04:41.819Z,101823.75
2023-03-16T09:07:11.360Z,101822.53
2023-03-16T09:09:39.425Z,101814.88
2023-03-16T09:12:06.741Z,101819.97
2023-03-16T09:14:34.174Z,101817.59
2023-03-16T09:17:01.061Z,101822.19
2023-03-16T09:19:32.525Z,101821.56
2023-03-16T09:22:04.766Z,101832.50
2023-03-16T09:24:31.937Z,101821.91
2023-03-16T09:26:58.915Z,101825.56
2023-03-16T09:29:25.941Z,101818.53
2023-03-16T09:31:53.093Z,101820.88
2023-03-16T09:34:19.981Z,101822.13
2023-03-16T09:36:47.307Z,101823.53
2023-03-16T09:39:14.420Z,101826.75
2023-03-16T09:42:05.075Z,101831.56
2023-03-16T09:44:43.520Z,101818.91
2023-03-16T09:47:12.328Z,101824.72
2023-03-16T09:49:50.107Z,101818.25
2023-03-16T09:52:35.486Z,101823.47
2023-03-16T09:55:38.782Z,101828.31
2023-03-16T09:58:16.319Z,101828.34
2023-03-16T10:01:01.856Z,101830.53
2023-03-16T10:03:57.381Z,101840.03
2023-03-16T10:06:26.377Z,101831.63
2023-03-16T10:09:47.429Z,101820.63
2023-03-16T10:12:16.009Z,101820.09
2023-03-16T10:14:52.504Z,101818.72
2023-03-16T10:17:28.248Z,101826.31
2023-03-16T10:20:01.651Z,101806.69
2023-03-16T10:22:37.610Z,101814.16
2023-03-16T10:25:27.785Z,101810.38
2023-03-16T10:27:54.741Z,101795.28
2023-03-16T10:30:29.259Z,101806.66
2023-03-16T10:33:01.659Z,101797.81
2023-03-16T10:35:46.286Z,101800.03
2023-03-16T10:38:40.186Z,101807.41
2023-03-16T10:41:20.494Z,101801.22
2023-03-16T10:43:55.427Z,101795.09
2023-03-16T10:46:25.919Z,101798.41
2023-03-16T10:49:00.476Z,101792.81
2023-03-16T10:51:38.186Z,101800.91
2023-03-16T10:54:16.545Z,101789.28
2023-03-16T10:56:43.581Z,101782.47
2023-03-16T10:59:22.877Z,101787.94
2023-03-16T11:01:50.081Z,101784.84
2023-03-16T11:04:20.374Z,101771.38
2023-03-16T11:06:58.439Z,101778.25
2023-03-16T11:09:33.332Z,101776.84
2023-03-16T11:12:20.081Z,101781.09
2023-03-16T11:14:48.944Z,101781.78
2023-03-16T11:17:35.080Z,101782.09
2023-03-16T11:20:12.376Z,101774.22
2023-03-16T11:22:41.021Z,101765.09
2023-03-16T11:25:20.576Z,101775.66
2023-03-16T11:28:12.006Z,101759.69
2023-03-16T11:30:49.481Z,101760.66
2023-03-16T11:33:16.397Z,101753.22
2023-03-16T11:36:17.661Z,101769.75
2023-03-16T11:39:05.663Z,101767.94
2023-03-16T11:42:01.358Z,101759.78
2023-03-16T11:45:10.895Z,101742.22
2023-03-16T11:48:11.044Z,101751.78
2023-03-16T11:50:37.818Z,101741.31
2023-03-16T11:53:29.261Z,101733.06
2023-03-16T11:56:27.248Z,101732.69
2023-03-16T11:59:16.257Z,101728.69
2023-03-16T12:02:10.957Z,101729.78
2023-03-16T12:04:48.638Z,101728.50
2023-03-16T12:07:42.910Z,101723.78
2023-03-16T12:10:29.926Z,101724.50
2023-03-16T12:13:30.582Z,101719.00
2023-03-16T12:16:05.549Z,101710.59
2023-03-16T12:18:45.480Z,101708.50
2023-03-16T12:21:20.512Z,101700.19
2023-03-16T12:23:58.543Z,101700.06
2023-03-16T12:26:32.441Z,101695.53
2023-03-16T12:29:04.685Z,101699.13
2023-03-16T12:31:47.475Z,101701.16
2023-03-16T12:34:53.204Z,101698.56
2023-03-16T12:37:52.674Z,101702.44
2023-03-16T12:40:44.651Z,101691.56
2023-03-16T12:43:29.695Z,101692.81
2023-03-16T12:46:16.480Z,101684.41
2023-03-16T12:48:51.252Z,101677.47
2023-03-16T12:51:18.216Z,101672.94
2023-03-16T12:54:05.502Z,101672.88
2023-03-16T12:56:44.715Z,101668.09
2023-03-16T12:59:19.617Z,101666.50
2023-03-16T13:01:52.045Z,101672.81
2023-03-16T13:04:33.713Z,101646.94
2023-03-16T13:07:16.066Z,101661.50
2023-03-16T13:10:13.694Z,101659.13
2023-03-16T13:12:45.175Z,101650.66
2023-03-16T13:15:18.039Z,101642.03
2023-03-16T13:17:48.123Z,101635.16
2023-03-16T13:20:31.789Z,101644.00
2023-03-16T13:23:20.768Z,101630.81
2023-03-16T13:26:15.240Z,101631.13
2023-03-16T13:28:46.119Z,101638.06
2023-03-16T13:31:37.128Z,101631.97
2023-03-16T13:34:08.356Z,101625.31
2023-03-16T13:36:37.077Z,101634.41
2023-03-16T13:39:22.395Z,101635.38
2023-03-16T13:42:20.382Z,101636.69
2023-03-16T13:44:47.980Z,101640.09
2023-03-16T13:47:19.916Z,101626.50
2023-03-16T13:49:51.008Z,101625.47
2023-03-16T13:52:29.270Z,101636.88
2023-03-16T13:54:59.502Z,101630.53
2023-03-16T13:57:30.353Z,101609.59
2023-03-16T14:00:23.198Z,101617.06
2023-03-16T14:02:57.104Z,101617.78
2023-03-16T14:05:33.316Z,101598.22
2023-03-16T14:08:00.856Z,101592.41
2023-03-16T14:10:37.739Z,101588.84
2023-03-16T14:13:29.483Z,101590.94
2023-03-16T14:16:13.819Z,101601.75
2023-03-16T14:18:46.167Z,101589.25
2023-03-16T14:21:21.612Z,101593.75
2023-03-16T14:24:00.007Z,101594.34
2023-03-16T14:26:27.562Z,101591.97
2023-03-16T14:29:14.984Z,101584.63
2023-03-16T14:31:41.924Z,101588.25
2023-03-16T14:34:39.425Z,101580.97
2023-03-16T14:37:13.148Z,101586.66
2023-03-16T14:39:41.395Z,101583.78
2023-03-16T14:42:22.152Z,101581.09
2023-03-16T14:44:49.646Z,101576.72
2023-03-16T14:47:28.211Z,101568.09
2023-03-16T14:50:01.644Z,101559.53
2023-03-16T14:52:31.754Z,101560.53
2023-03-16T14:55:03.348Z,101554.22
2023-03-16T14:57:31.250Z,101548.44
2023-03-16T14:59:58.257Z,101552.00
2023-03-16T15:02:32.240Z,101543.53
2023-03-16T15:05:01.347Z,101543.94
2023-03-16T15:07:36.614Z,101550.75
2023-03-16T15:10:22.089Z,101553.94
2023-03-16T15:12:54.653Z,101547.50
2023-03-16T15:15:27.406Z,101540.41
2023-03-16T15:17:54.999Z,101531.63
2023-03-16T15:20:32.996Z,101544.38
2023-03-16T15:23:01.620Z,101526.09
2023-03-16T15:25:37.475Z,101532.81
2023-03-16T15:28:26.905Z,101535.28
2023-03-16T15:30:59.764Z,101544.31
2023-03-16T15:33:27.513Z,101537.91
2023-03-16T15:35:57.470Z,101532.66
2023-03-16T15:38:28.469Z,101544.25
2023-03-16T15:40:55.915Z,101539.44
2023-03-16T15:43:27.419Z,101529.72
2023-03-16T15:45:57.315Z,101541.63
2023-03-16T15:48:25.317Z,101548.72
2023-03-16T15:50:56.496Z,101539.69
2023-03-16T15:53:35.700Z,101521.84
2023-03-16T15:56:08.095Z,101523.72
2023-03-16T15:58:36.696Z,101529.16
2023-03-16T16:01:07.647Z,101526.06
2023-03-16T16:03:35.039Z,101521.91
2023-03-16T16:06:02.031Z,101521.78
2023-03-16T16:08:28.903Z,101531.16
2023-03-16T16:10:56.630Z,101521.41
2023-03-16T16:13:42.930Z,101516.00
2023-03-16T16:16:14.567Z,101528.66
2023-03-16T16:18:41.972Z,101523.41
2023-03-16T16:21:22.379Z,101523.22
2023-03-16T16:23:52.162Z,101531.66
2023-03-16T16:26:48.201Z,101531.66
2023-03-16T16:29:22.220Z,101528.47
2023-03-16T16:31:51.413Z,101524.25
2023-03-16T16:34:23.925Z,101533.84
2023-03-16T16:36:51.147Z,101538.09
2023-03-16T16:39:18.067Z,101539.66
2023-03-16T16:41:45.032Z,101531.44
2023-03-16T16:44:23.981Z,101538.81
2023-03-16T16:46:52.782Z,101532.69
2023-03-16T16:49:31.157Z,101540.13
2023-03-16T16:51:59.559Z,101528.38
2023-03-16T16:54:30.300Z,101524.13
2023-03-16T16:56:59.205Z,101529.09
2023-03-16T16:59:33.188Z,101523.56
2023-03-16T17:02:03.248Z,101514.47
2023-03-16T17:04:30.704Z,101520.56
2023-03-16T17:07:01.945Z,101525.34
2023-03-16T17:09:30.669Z,101510.50
2023-03-16T17:12:02.214Z,101512.81
2023-03-16T17:14:30.983Z,101514.22
2023-03-16T17:17:04.712Z,101509.28
2023-03-16T17:19:32.680Z,101520.53
2023-03-16T17:21:59.981Z,101518.16
2023-03-16T17:24:27.484Z,101524.88
2023-03-16T17:26:59.066Z,101522.31
2023-03-16T17:29:31.563Z,101520.94
2023-03-16T17:32:04.788Z,101524.91
2023-03-16T17:34:34.406Z,101521.69
2023-03-16T17:37:02.206Z,101532.03
2023-03-16T17:39:33.712Z,101533.50
2023-03-16T17:42:07.673Z,101525.94
2023-03-16T17:44:39.929Z,101537.06
2023-03-16T17:47:25.532Z,101537.53
2023-03-16T17:49:53.484Z,101536.31
2023-03-16T17:52:26.339Z,101545.38
2023-03-16T17:54:54.765Z,101541.31
2023-03-16T17:57:33.639Z,101537.00
2023-03-16T18:00:07.355Z,101539.69
2023-03-16T18:02:58.911Z,101538.66
2023-03-16T18:05:33.794Z,101524.06
2023-03-16T18:08:23.737Z,101515.25
2023-03-16T18:11:00.446Z,101526.94
2023-03-16T18:13:35.052Z,101519.13
2023-03-16T18:16:05.667Z,101520.78
2023-03-16T18:18:37.377Z,101535.97
2023-03-16T18:21:04.718Z,101530.44
2023-03-16T18:23:34.629Z,101519.56
2023-03-16T18:26:04.013Z,101521.19
2023-03-16T18:28:32.602Z,101528.78
2023-03-16T18:31:01.600Z,101526.53
2023-03-16T18:33:38.028Z,101522.63
2023-03-16T18:36:16.181Z,101518.13
2023-03-16T18:38:46.056Z,101505.41
2023-03-16T18:41:22.666Z,101510.94
2023-03-16T18:43:55.475Z,101522.41
2023-03-16T18:46:34.257Z,101524.28
2023-03-16T18:49:04.923Z,101524.69
2023-03-16T18:51:31.960Z,101518.53
2023-03-16T18:53:59.590Z,101506.00
2023-03-16T18:56:28.600Z,101502.31
2023-03-16T18:58:56.566Z,101500.88
2023-03-16T19:01:32.845Z,101493.69
2023-03-16T19:04:01.567Z,101499.03
2023-03-16T19:06:35.441Z,101505.41
2023-03-16T19:09:14.957Z,101504.78
2023-03-16T19:11:44.324Z,101494.31
2023-03-16T19:14:24.831Z,101501.28
2023-03-16T19:16:52.737Z,101502.72
2023-03-16T19:19:21.882Z,101496.38
2023-03-16T19:22:13.760Z,101492.88
2023-03-16T19:24:51.686Z,101493.28
2023-03-16T19:27:36.931Z,101478.72
2023-03-16T19:30:05.187Z,101483.59
2023-03-16T19:32:32.263Z,101490.56
2023-03-16T19:34:59.478Z,101496.94
2023-03-16T19:37:29.925Z,101493.84
2023-03-16T19:39:57.081Z,101498.75
2023-03-16T19:42:36.228Z,101502.84
2023-03-16T19:45:05.052Z,101506.31
2023-03-16T19:47:34.851Z,101506.09
2023-03-16T19:50:01.989Z,101506.72
2023-03-16T19:52:31.410Z,101503.44
2023-03-16T19:54:58.403Z,101499.13
2023-03-16T19:57:25.437Z,101497.69
2023-03-16T19:59:56.469Z,101499.94
2023-03-16T20:02:28.049Z,101488.47
2023-03-16T20:04:55.848Z,101483.75
2023-03-16T20:07:22.970Z,101495.44
2023-03-16T20:09:50.715Z,101502.59
2023-03-16T20:12:27.574Z,101505.69
2023-03-16T20:14:57.335Z,101498.50
2023-03-16T20:17:28.245Z,101499.34
2023-03-16T20:19:57.123Z,101495.66
2023-03-16T20:22:28.300Z,101493.41
2023-03-16T20:24:55.870Z,101489.09
2023-03-16T20:27:24.193Z,101487.66
2023-03-16T20:29:54.430Z,101488.50
2023-03-16T20:32:25.784Z,101488.28
2023-03-16T20:34:53.946Z,101485.00
2023-03-16T20:37:27.006Z,101482.13
2023-03-16T20:39:57.256Z,101483.59
2023-03-16T20:42:30.069Z,101476.00
2023-03-16T20:44:57.534Z,101495.47
2023-03-16T20:47:26.620Z,101482.16
2023-03-16T20:49:59.384Z,101481.13
2023-03-16T20:52:30.870Z,101483.78
2023-03-16T20:54:58.688Z,101483.38
2023-03-16T20:57:29.018Z,101473.53
2023-03-16T20:59:56.447Z,101484.41
2023-03-16T21:02:37.295Z,101480.72
2023-03-16T21:05:08.110Z,101484.22
2023-03-16T21:07:37.423Z,101478.88
2023-03-16T21:10:04.939Z,101463.91
2023-03-16T21:12:34.745Z,101467.00
2023-03-16T21:15:15.080Z,101460.84
2023-03-16T21:17:41.998Z,101455.72
2023-03-16T21:20:20.453Z,101448.53
2023-03-16T21:22:47.633Z,101454.06
2023-03-16T21:25:37.335Z,101450.38
2023-03-16T21:28:05.390Z,101443.41
2023-03-16T21:30:38.096Z,101435.22
2023-03-16T21:33:35.012Z,101447.72
2023-03-16T21:36:06.057Z,101444.44
2023-03-16T21:38:33.342Z,101436.66
2023-03-16T21:41:00.972Z,101433.38
2023-03-16T21:43:28.195Z,101423.13
2023-03-16T21:45:57.350Z,101424.13
2023-03-16T21:48:32.393Z,101406.50
2023-03-16T21:50:59.561Z,101402.00
2023-03-16T21:53:31.622Z,101413.88
2023-03-16T21:56:00.077Z,101427.19
2023-03-16T21:58:27.315Z,101413.47
2023-03-16T22:00:55.524Z,101412.03
2023-03-16T22:03:47.684Z,101397.66
2023-03-16T22:06:16.961Z,101404.00
2023-03-16T22:08:43.963Z,101394.59
2023-03-16T22:11:19.685Z,101397.25
2023-03-16T22:13:47.035Z,101394.78
2023-03-16T22:16:17.871Z,101381.66
2023-03-16T22:18:48.694Z,101386.16
2023-03-16T22:21:37.529Z,101371.81
2023-03-16T22:24:12.241Z,101370.59
2023-03-16T22:26:39.170Z,101366.69
2023-03-16T22:29:23.501Z,101375.09
2023-03-16T22:31:53.808Z,101385.34
2023-03-16T22:34:30.234Z,101370.19
2023-03-16T22:36:57.920Z,101380.81
2023-03-16T22:39:25.039Z,101369.78
2023-03-16T22:41:52.335Z,101360.34
2023-03-16T22:44:23.095Z,101360.75
2023-03-16T22:46:50.934Z,101363.22
2023-03-16T22:49:27.211Z,101363.22
2023-03-16T22:51:56.743Z,101370.38
2023-03-16T22:54:27.308Z,101355.63
2023-03-16T22:56:54.643Z,101363.22
2023-03-16T22:59:24.705Z,101346.00
2023-03-16T23:01:51.714Z,101351.34
2023-03-16T23:04:25.797Z,101341.09
2023-03-16T23:06:54.550Z,101338.44
2023-03-16T23:09:22.274Z,101336.78
2023-03-16T23:11:54.749Z,101339.84
2023-03-16T23:14:25.692Z,101340.88
2023-03-16T23:16:53.593Z,101345.38
2023-03-16T23:19:34.208Z,101347.22
2023-03-16T23:22:05.352Z,101349.47
2023-03-16T23:24:34.075Z,101341.69
2023-03-16T23:27:01.158Z,101336.34
2023-03-16T23:29:28.784Z,101333.69
2023-03-16T23:31:56.474Z,101320.59
2023-03-16T23:34:25.171Z,101325.03
2023-03-16T23:36:52.535Z,101321.56
2023-03-16T23:39:19.839Z,101318.09
2023-03-16T23:41:49.864Z,101317.03
2023-03-16T23:44:24.008Z,101319.09
2023-03-16T23:46:51.437Z,101312.72
2023-03-16T23:49:22.976Z,101311.28
2023-03-16T23:51:50.868Z,101317.03
2023-03-16T23:54:23.137Z,101312.09
2023-03-16T23:56:50.822Z,101304.50
2023-03-16T23:59:19.188Z,101304.88
